createdAt,value
2024-01-11T00:01:13.950Z,10.10
2024-01-11T00:03:46.166Z,7.50
2024-01-11T00:06:18.114Z,9.40
2024-01-11T00:08:50.099Z,7.10
2024-01-11T00:11:22.069Z,9.20
2024-01-11T00:13:54.230Z,9.20
2024-01-11T00:16:26.072Z,7.30
2024-01-11T00:18:58.139Z,7.60
2024-01-11T00:21:30.072Z,8.40
2024-01-11T00:24:01.988Z,9.50
2024-01-11T00:26:34.312Z,7.70
2024-01-11T00:29:06.771Z,8.70
2024-01-11T00:31:39.346Z,8.10
2024-01-11T00:34:11.565Z,7.80
2024-01-11T00:36:43.580Z,7.00
2024-01-11T00:39:15.546Z,8.20
2024-01-11T00:41:47.441Z,8.80
2024-01-11T00:44:19.736Z,6.70
2024-01-11T00:46:52.142Z,7.90
2024-01-11T00:49:24.316Z,5.80
2024-01-11T00:51:56.876Z,7.80
2024-01-11T00:54:28.649Z,6.40
2024-01-11T00:57:00.847Z,7.20
2024-01-11T00:59:32.524Z,8.50
2024-01-11T01:02:04.585Z,7.60
2024-01-11T01:04:39.914Z,9.30
2024-01-11T01:07:11.919Z,9.50
2024-01-11T01:09:43.978Z,7.70
2024-01-11T01:12:16.089Z,6.30
2024-01-11T01:14:48.018Z,7.70
2024-01-11T01:17:19.891Z,7.30
2024-01-11T01:19:51.706Z,8.10
2024-01-11T01:22:23.580Z,10.00
2024-01-11T01:24:55.825Z,7.50
2024-01-11T01:27:28.109Z,7.80
2024-01-11T01:29:59.988Z,5.60
2024-01-11T01:32:32.902Z,8.80
2024-01-11T01:35:05.087Z,7.60
2024-01-11T01:37:37.041Z,3.40
2024-01-11T01:40:11.094Z,7.60
2024-01-11T01:42:46.500Z,7.40
2024-01-11T01:45:19.154Z,9.50
2024-01-11T01:47:51.017Z,8.90
2024-01-11T01:50:23.773Z,9.00
2024-01-11T01:52:57.274Z,8.80
2024-01-11T01:55:30.976Z,7.80
2024-01-11T01:58:05.769Z,8.80
2024-01-11T02:00:37.458Z,5.30
2024-01-11T02:03:10.847Z,9.40
2024-01-11T02:05:42.880Z,8.80
2024-01-11T02:08:21.879Z,8.00
2024-01-11T02:10:54.821Z,9.20
2024-01-11T02:13:26.580Z,6.70
2024-01-11T02:15:58.443Z,8.10
2024-01-11T02:18:30.955Z,8.20
2024-01-11T02:21:03.924Z,10.30
2024-01-11T02:23:38.822Z,8.80
2024-01-11T02:26:11.278Z,8.00
2024-01-11T02:28:47.395Z,10.00
2024-01-11T02:31:19.157Z,7.20
2024-01-11T02:33:51.712Z,8.70
2024-01-11T02:36:23.940Z,8.20
2024-01-11T02:38:57.197Z,8.00
2024-01-11T02:41:30.160Z,9.60
2024-01-11T02:44:02.885Z,5.80
2024-01-11T02:46:35.243Z,8.80
2024-01-11T02:49:07.532Z,6.40
2024-01-11T02:51:39.650Z,7.90
2024-01-11T02:54:11.491Z,6.90
2024-01-11T02:56:43.391Z,7.50
2024-01-11T02:59:15.622Z,10.00
2024-01-11T03:01:47.519Z,4.80
2024-01-11T03:04:19.168Z,7.90
2024-01-11T03:06:50.928Z,4.70
2024-01-11T03:09:23.636Z,7.70
2024-01-11T03:11:55.719Z,7.60
2024-01-11T03:14:27.701Z,8.90
2024-01-11T03:16:59.547Z,8.60
2024-01-11T03:19:31.434Z,10.10
2024-01-11T03:22:07.415Z,11.10
2024-01-11T03:27:13.514Z,11.30
2024-01-11T03:29:45.309Z,11.30
2024-01-11T03:32:17.179Z,11.10
2024-01-11T03:34:49.003Z,11.70
2024-01-11T03:37:20.705Z,10.10
2024-01-11T03:39:52.819Z,10.00
2024-01-11T03:42:24.984Z,10.70
2024-01-11T03:44:56.817Z,12.90
2024-01-11T03:47:28.614Z,10.80
2024-01-11T03:50:00.793Z,8.80
2024-01-11T03:52:32.597Z,9.70
2024-01-11T03:55:04.683Z,10.50
2024-01-11T03:57:36.539Z,9.80
2024-01-11T04:00:11.973Z,9.40
2024-01-11T04:02:43.831Z,10.60
2024-01-11T04:05:16.799Z,9.90
2024-01-11T04:07:48.628Z,8.20
2024-01-11T04:10:21.256Z,9.00
2024-01-11T04:12:53.222Z,10.30
2024-01-11T04:15:24.833Z,10.20
2024-01-11T04:17:57.250Z,9.30
2024-01-11T04:20:29.500Z,5.90
2024-01-11T04:23:01.241Z,9.10
2024-01-11T04:25:33.077Z,9.00
2024-01-11T04:28:05.093Z,9.00
2024-01-11T04:30:36.883Z,10.00
2024-01-11T04:33:08.728Z,8.20
2024-01-11T04:35:41.173Z,12.00
2024-01-11T04:38:13.103Z,11.20
2024-01-11T04:40:45.182Z,9.80
2024-01-11T04:43:17.233Z,11.20
2024-01-11T04:45:48.860Z,10.70
2024-01-11T04:48:21.403Z,13.30
2024-01-11T04:50:53.936Z,10.20
2024-01-11T04:53:26.510Z,11.40
2024-01-11T04:55:58.631Z,12.50
2024-01-11T04:58:30.370Z,10.50
2024-01-11T05:01:02.917Z,13.50
2024-01-11T05:03:35.071Z,8.20
2024-01-11T05:06:07.855Z,11.70
2024-01-11T05:08:39.978Z,11.00
2024-01-11T05:11:16.946Z,11.30
2024-01-11T05:13:49.464Z,10.70
2024-01-11T05:16:24.614Z,11.00
2024-01-11T05:18:57.916Z,10.10
2024-01-11T05:21:30.060Z,10.80
2024-01-11T05:24:02.073Z,11.40
2024-01-11T05:26:33.954Z,9.70
2024-01-11T05:29:06.795Z,9.20
2024-01-11T05:31:39.234Z,10.70
2024-01-11T05:34:13.454Z,7.90
2024-01-11T05:36:45.451Z,9.90
2024-01-11T05:39:18.213Z,5.50
2024-01-11T05:41:50.063Z,7.60
2024-01-11T05:44:21.731Z,7.20
2024-01-11T05:46:53.436Z,8.70
2024-01-11T05:49:25.117Z,12.10
2024-01-11T05:51:57.413Z,9.90
2024-01-11T05:54:29.411Z,13.50
2024-01-11T05:57:01.109Z,11.00
2024-01-11T05:59:33.097Z,11.70
2024-01-11T06:02:05.550Z,10.70
2024-01-11T06:04:37.386Z,10.60
2024-01-11T06:07:09.102Z,12.90
2024-01-11T06:09:40.758Z,11.10
2024-01-11T06:12:12.923Z,10.70
2024-01-11T06:14:44.739Z,11.00
2024-01-11T06:17:16.957Z,7.90
2024-01-11T06:19:48.796Z,11.60
2024-01-11T06:22:20.770Z,12.20
2024-01-11T06:24:52.703Z,11.90
2024-01-11T06:27:24.409Z,6.40
2024-01-11T06:29:56.232Z,9.70
2024-01-11T06:32:28.615Z,10.80
2024-01-11T06:35:00.436Z,9.30
2024-01-11T06:37:32.362Z,8.30
2024-01-11T06:40:04.979Z,9.60
2024-01-11T06:42:37.446Z,7.20
2024-01-11T06:45:11.504Z,8.60
2024-01-11T06:47:43.679Z,3.70
2024-01-11T06:50:16.044Z,10.70
2024-01-11T06:52:48.140Z,11.20
2024-01-11T06:55:20.105Z,13.50
2024-01-11T06:57:52.091Z,11.80
2024-01-11T07:00:24.503Z,12.00
2024-01-11T07:02:56.278Z,11.50
2024-01-11T07:05:28.208Z,11.00
2024-01-11T07:08:00.380Z,12.00
2024-01-11T07:10:33.337Z,10.90
2024-01-11T07:13:06.166Z,11.30
2024-01-11T07:15:38.120Z,12.40
2024-01-11T07:18:10.334Z,11.00
2024-01-11T07:20:42.391Z,12.60
2024-01-11T07:23:14.955Z,12.80
2024-01-11T07:25:47.036Z,11.30
2024-01-11T07:28:20.813Z,12.20
2024-01-11T07:30:52.626Z,9.10
2024-01-11T07:33:24.772Z,12.70
2024-01-11T07:35:57.130Z,7.20
2024-01-11T07:38:29.015Z,10.70
2024-01-11T07:41:00.768Z,12.40
2024-01-11T07:43:45.552Z,8.20
2024-01-11T07:46:33.148Z,10.90
2024-01-11T07:49:11.484Z,8.30
2024-01-11T07:51:43.204Z,10.00
2024-01-11T07:54:14.991Z,9.20
2024-01-11T07:56:46.924Z,10.80
2024-01-11T07:59:18.936Z,11.90
2024-01-11T08:01:51.053Z,3.60
2024-01-11T08:04:23.051Z,11.70
2024-01-11T08:06:55.154Z,8.30
2024-01-11T08:09:27.365Z,12.00
2024-01-11T08:11:59.609Z,14.20
2024-01-11T08:14:31.567Z,12.70
2024-01-11T08:17:05.972Z,13.50
2024-01-11T08:19:38.750Z,14.30
2024-01-11T08:22:11.073Z,13.10
2024-01-11T08:24:43.204Z,13.10
2024-01-11T08:27:16.697Z,12.70
2024-01-11T08:29:49.410Z,10.90
2024-01-11T08:32:28.757Z,13.10
2024-01-11T08:35:05.731Z,12.90
2024-01-11T08:37:37.992Z,12.30
2024-01-11T08:40:12.395Z,15.00
2024-01-11T08:42:44.151Z,13.10
2024-01-11T08:45:19.588Z,13.80
2024-01-11T08:47:51.776Z,13.60
2024-01-11T08:50:24.798Z,11.60
2024-01-11T08:52:57.564Z,15.50
2024-01-11T08:55:29.953Z,13.70
2024-01-11T08:58:01.856Z,15.60
2024-01-11T09:00:33.788Z,14.40
2024-01-11T09:03:06.724Z,14.50
2024-01-11T09:05:39.824Z,14.50
2024-01-11T09:08:11.890Z,15.80
2024-01-11T09:10:44.077Z,16.20
2024-01-11T09:13:16.740Z,16.50
2024-01-11T09:15:48.932Z,16.90
2024-01-11T09:18:21.201Z,16.80
2024-01-11T09:20:54.226Z,16.00
2024-01-11T09:23:26.175Z,17.60
2024-01-11T09:25:58.537Z,15.90
2024-01-11T09:28:30.823Z,16.50
2024-01-11T09:31:03.419Z,17.90
2024-01-11T09:33:35.356Z,17.20
2024-01-11T09:36:09.845Z,16.40
2024-01-11T09:38:41.912Z,17.50
2024-01-11T09:41:16.141Z,17.90
2024-01-11T09:43:50.354Z,17.60
2024-01-11T09:46:23.958Z,16.50
2024-01-11T09:48:57.971Z,16.70
2024-01-11T09:51:31.622Z,17.20
2024-01-11T09:54:03.977Z,17.00
2024-01-11T09:56:37.286Z,17.70
2024-01-11T09:59:11.949Z,17.90
2024-01-11T10:01:45.805Z,17.60
2024-01-11T10:04:18.738Z,17.30
2024-01-11T10:06:52.307Z,17.30
2024-01-11T10:09:25.216Z,17.30
2024-01-11T10:11:57.206Z,17.10
2024-01-11T10:14:29.236Z,18.00
2024-01-11T10:17:01.390Z,19.80
2024-01-11T10:19:33.534Z,19.60
2024-01-11T10:22:07.935Z,19.40
2024-01-11T10:24:39.933Z,18.10
2024-01-11T10:27:13.944Z,17.90
2024-01-11T10:29:46.359Z,16.80
2024-01-11T10:32:18.986Z,17.20
2024-01-11T10:34:53.183Z,18.80
2024-01-11T10:37:25.425Z,18.30
2024-01-11T10:40:00.136Z,16.40
2024-01-11T10:42:38.446Z,17.90
2024-01-11T10:45:17.004Z,18.80
2024-01-11T10:47:55.973Z,17.60
2024-01-11T10:50:32.523Z,16.30
2024-01-11T10:53:14.872Z,17.50
2024-01-11T10:55:48.486Z,18.90
2024-01-11T10:58:22.159Z,17.90
2024-01-11T11:00:56.652Z,19.40
2024-01-11T11:03:29.736Z,17.40
2024-01-11T11:06:02.807Z,19.50
2024-01-11T11:08:35.533Z,17.10
2024-01-11T11:11:09.792Z,17.90
2024-01-11T11:16:12.743Z,17.60
2024-01-11T11:18:44.871Z,17.90
2024-01-11T11:21:17.430Z,15.70
2024-01-11T11:23:51.569Z,17.70
2024-01-11T11:26:23.454Z,17.80
2024-01-11T11:28:55.812Z,19.00
2024-01-11T11:31:44.001Z,18.40
2024-01-11T11:34:17.943Z,18.30
2024-01-11T11:36:56.023Z,16.20
2024-01-11T11:39:28.062Z,19.90
2024-01-11T11:42:02.466Z,17.80
2024-01-11T11:44:34.596Z,17.50
2024-01-11T11:47:20.636Z,18.00
2024-01-11T11:50:07.586Z,19.00
2024-01-11T11:52:40.651Z,19.80
2024-01-11T11:55:14.540Z,19.10
2024-01-11T11:57:47.695Z,18.80
2024-01-11T12:00:21.231Z,16.70
2024-01-11T12:02:56.783Z,18.00
2024-01-11T12:05:29.443Z,17.00
2024-01-11T12:08:02.005Z,16.20
2024-01-11T12:10:33.908Z,16.40
2024-01-11T12:13:06.220Z,19.10
2024-01-11T12:15:38.278Z,15.60
2024-01-11T12:18:10.643Z,20.50
2024-01-11T12:20:43.271Z,18.10
2024-01-11T12:23:15.883Z,16.80
2024-01-11T12:25:48.428Z,16.40
2024-01-11T12:28:20.572Z,16.40
2024-01-11T12:30:53.284Z,17.60
2024-01-11T12:33:26.156Z,16.20
2024-01-11T12:35:59.344Z,15.30
2024-01-11T12:38:34.620Z,13.60
2024-01-11T12:41:08.579Z,16.90
2024-01-11T12:43:40.485Z,14.10
2024-01-11T12:46:12.881Z,14.30
2024-01-11T12:48:45.460Z,13.80
2024-01-11T12:51:21.853Z,15.00
2024-01-11T12:53:56.479Z,15.80
2024-01-11T12:56:28.939Z,14.10
2024-01-11T12:59:10.966Z,15.00
2024-01-11T13:01:43.223Z,13.60
2024-01-11T13:04:16.289Z,13.30
2024-01-11T13:06:49.675Z,13.30
2024-01-11T13:09:21.899Z,15.20
2024-01-11T13:11:54.346Z,14.90
2024-01-11T13:14:26.341Z,13.20
2024-01-11T13:16:58.860Z,12.80
2024-01-11T13:19:31.260Z,13.30
2024-01-11T13:22:03.943Z,13.80
2024-01-11T13:24:37.267Z,12.00
2024-01-11T13:27:09.259Z,13.90
2024-01-11T13:29:41.104Z,10.70
2024-01-11T13:32:12.958Z,11.80
2024-01-11T13:34:47.127Z,11.40
2024-01-11T13:37:20.026Z,12.30
2024-01-11T13:39:52.046Z,9.60
2024-01-11T13:42:23.748Z,11.10
2024-01-11T13:44:55.693Z,10.00
2024-01-11T13:47:27.863Z,11.00
2024-01-11T13:50:02.818Z,11.10
2024-01-11T13:52:35.270Z,11.00
2024-01-11T13:55:08.261Z,10.90
2024-01-11T13:57:40.635Z,10.50
2024-01-11T14:00:14.504Z,11.30
2024-01-11T14:02:46.580Z,10.20
2024-01-11T14:05:19.654Z,10.90
2024-01-11T14:07:55.793Z,10.20
2024-01-11T14:10:28.814Z,8.80
2024-01-11T14:13:01.150Z,10.20
2024-01-11T14:15:33.384Z,9.90
2024-01-11T14:18:06.355Z,8.50
2024-01-11T14:20:38.439Z,11.00
2024-01-11T14:23:10.453Z,9.20
2024-01-11T14:25:43.110Z,10.40
2024-01-11T14:28:15.405Z,10.70
2024-01-11T14:30:47.381Z,7.50
2024-01-11T14:33:21.335Z,11.00
2024-01-11T14:35:54.403Z,9.90
2024-01-11T14:38:27.357Z,9.70
2024-01-11T14:40:59.519Z,11.10
2024-01-11T14:43:31.408Z,10.90
2024-01-11T14:46:04.324Z,12.70
2024-01-11T14:48:36.466Z,10.80
2024-01-11T14:51:09.049Z,9.20
2024-01-11T14:53:42.045Z,9.90
2024-01-11T14:56:15.053Z,9.50
2024-01-11T14:58:47.178Z,9.90
2024-01-11T15:01:19.377Z,9.30
2024-01-11T15:03:51.428Z,12.20
2024-01-11T15:06:23.793Z,12.40
2024-01-11T15:08:56.213Z,12.40
2024-01-11T15:11:28.835Z,10.20
2024-01-11T15:14:01.092Z,10.60
2024-01-11T15:16:33.935Z,10.70
2024-01-11T15:19:07.059Z,10.10
2024-01-11T15:21:42.539Z,9.50
2024-01-11T15:24:16.655Z,9.40
2024-01-11T15:26:50.078Z,9.50
2024-01-11T15:29:23.060Z,11.00
2024-01-11T15:31:55.453Z,10.50
2024-01-11T15:34:27.619Z,7.20
2024-01-11T15:37:00.157Z,10.10
2024-01-11T15:39:33.426Z,10.90
2024-01-11T15:42:07.551Z,10.70
2024-01-11T15:44:41.201Z,10.00
2024-01-11T15:47:13.242Z,10.40
2024-01-11T15:49:45.713Z,10.10
2024-01-11T15:52:17.778Z,12.00
2024-01-11T15:54:50.278Z,12.90
2024-01-11T15:57:23.164Z,10.80
2024-01-11T15:59:55.532Z,10.50
2024-01-11T16:02:27.522Z,7.80
2024-01-11T16:04:59.874Z,9.70
2024-01-11T16:07:31.845Z,9.20
2024-01-11T16:10:04.011Z,11.70
2024-01-11T16:12:35.925Z,8.80
2024-01-11T16:15:09.552Z,8.60
2024-01-11T16:17:41.671Z,8.80
2024-01-11T16:20:16.123Z,9.30
2024-01-11T16:22:51.885Z,10.10
2024-01-11T16:25:24.712Z,6.80
2024-01-11T16:27:56.957Z,8.90
2024-01-11T16:30:29.375Z,7.60
2024-01-11T16:33:02.560Z,8.50
2024-01-11T16:35:44.707Z,10.60
2024-01-11T16:38:22.293Z,10.70
2024-01-11T16:40:55.768Z,10.50
2024-01-11T16:43:28.255Z,9.10
2024-01-11T16:46:00.256Z,9.00
2024-01-11T16:48:32.394Z,8.50
2024-01-11T16:51:04.920Z,9.40
2024-01-11T16:53:36.885Z,8.10
2024-01-11T16:56:10.212Z,10.10
2024-01-11T16:58:43.225Z,8.50
2024-01-11T17:01:15.664Z,10.90
2024-01-11T17:03:49.816Z,9.60
2024-01-11T17:06:22.685Z,13.90
2024-01-11T17:08:54.720Z,11.80
2024-01-11T17:11:27.032Z,11.30
2024-01-11T17:13:59.188Z,10.40
2024-01-11T17:16:31.334Z,9.10
2024-01-11T17:19:04.003Z,10.80
2024-01-11T17:21:36.500Z,7.10
2024-01-11T17:24:16.981Z,6.40
2024-01-11T17:26:49.061Z,6.00
2024-01-11T17:29:22.090Z,5.00
2024-01-11T17:31:54.521Z,6.10
2024-01-11T17:34:26.489Z,5.90
2024-01-11T17:36:58.709Z,8.50
2024-01-11T17:39:31.461Z,7.50
2024-01-11T17:42:07.506Z,7.70
2024-01-11T17:44:41.680Z,7.70
2024-01-11T17:47:13.817Z,8.70
2024-01-11T17:49:45.969Z,7.60
2024-01-11T17:52:18.965Z,8.60
2024-01-11T17:54:51.156Z,8.60
2024-01-11T17:57:24.627Z,7.90
2024-01-11T17:59:56.742Z,5.80
2024-01-11T18:02:33.736Z,6.50
2024-01-11T18:05:06.989Z,6.70
2024-01-11T18:07:39.230Z,5.70
2024-01-11T18:10:11.941Z,5.60
2024-01-11T18:12:44.177Z,5.90
2024-01-11T18:15:16.508Z,5.10
2024-01-11T18:17:48.822Z,6.60
2024-01-11T18:20:21.433Z,6.00
2024-01-11T18:22:53.562Z,6.00
2024-01-11T18:25:25.635Z,6.10
2024-01-11T18:27:58.006Z,6.70
2024-01-11T18:30:30.525Z,5.00
2024-01-11T18:33:03.248Z,4.70
2024-01-11T18:35:35.392Z,6.00
2024-01-11T18:38:07.716Z,5.60
2024-01-11T18:40:43.022Z,3.80
2024-01-11T18:43:15.186Z,4.10
2024-01-11T18:45:48.821Z,4.50
2024-01-11T18:48:23.331Z,5.10
2024-01-11T18:50:55.930Z,5.90
2024-01-11T18:53:28.051Z,5.30
2024-01-11T18:56:00.702Z,5.60
2024-01-11T18:58:33.292Z,4.60
2024-01-11T19:01:09.387Z,5.60
2024-01-11T19:03:42.142Z,5.40
2024-01-11T19:06:20.778Z,5.60
2024-01-11T19:11:26.134Z,5.30
2024-01-11T19:16:36.613Z,4.10
2024-01-11T19:19:12.099Z,5.20
2024-01-11T19:21:47.687Z,6.00
2024-01-11T19:24:20.214Z,5.10
2024-01-11T19:26:52.696Z,5.00
2024-01-11T19:29:26.168Z,5.50
2024-01-11T19:32:02.352Z,4.80
2024-01-11T19:34:37.233Z,6.30
2024-01-11T19:37:12.725Z,4.50
2024-01-11T19:42:25.664Z,5.20
2024-01-11T19:44:58.315Z,3.90
2024-01-11T19:47:31.782Z,4.60
2024-01-11T19:50:04.186Z,4.80
2024-01-11T19:52:36.310Z,4.20
2024-01-11T19:55:09.660Z,4.10
2024-01-11T19:57:43.232Z,4.20
2024-01-11T20:00:18.282Z,4.70
2024-01-11T20:02:50.950Z,3.90
2024-01-11T20:05:23.420Z,4.80
2024-01-11T20:07:55.219Z,4.60
2024-01-11T20:10:32.596Z,4.00
2024-01-11T20:13:05.280Z,4.80
2024-01-11T20:15:41.142Z,4.40
2024-01-11T20:18:13.669Z,4.50
2024-01-11T20:20:46.248Z,4.30
2024-01-11T20:23:18.505Z,4.10
2024-01-11T20:25:54.807Z,4.30
2024-01-11T20:28:27.573Z,4.50
2024-01-11T20:31:00.046Z,4.50
2024-01-11T20:33:32.533Z,5.20
2024-01-11T20:36:07.147Z,4.40
2024-01-11T20:38:39.621Z,4.80
2024-01-11T20:41:15.122Z,4.30
2024-01-11T20:43:47.319Z,4.10
2024-01-11T20:46:24.201Z,5.40
2024-01-11T20:48:56.262Z,3.70
2024-01-11T20:51:28.310Z,4.60
2024-01-11T20:54:02.250Z,3.40
2024-01-11T20:56:34.725Z,3.10
2024-01-11T20:59:06.615Z,3.40
2024-01-11T21:01:38.711Z,2.90
2024-01-11T21:04:10.869Z,2.40
2024-01-11T21:06:43.734Z,3.00
2024-01-11T21:09:15.834Z,3.00
2024-01-11T21:11:48.136Z,3.20
2024-01-11T21:14:21.045Z,2.80
2024-01-11T21:17:00.565Z,2.70
2024-01-11T21:19:32.796Z,2.40
2024-01-11T21:22:05.710Z,2.60
2024-01-11T21:24:38.694Z,2.70
2024-01-11T21:27:10.850Z,2.90
2024-01-11T21:29:43.359Z,2.10
2024-01-11T21:32:16.121Z,2.80
2024-01-11T21:34:49.602Z,2.60
2024-01-11T21:37:21.991Z,2.60
2024-01-11T21:39:58.096Z,3.20
2024-01-11T21:42:33.162Z,2.50
2024-01-11T21:45:09.828Z,3.10
2024-01-11T21:47:42.713Z,2.50
2024-01-11T21:50:15.704Z,3.80
2024-01-11T21:52:48.312Z,2.60
2024-01-11T21:55:20.503Z,3.50
2024-01-11T21:57:52.748Z,2.50
2024-01-11T22:00:24.695Z,2.70
2024-01-11T22:02:57.470Z,3.00
2024-01-11T22:05:29.675Z,3.40
2024-01-11T22:08:02.954Z,3.30
2024-01-11T22:10:34.721Z,3.40
2024-01-11T22:13:07.551Z,3.80
2024-01-11T22:15:40.160Z,3.20
2024-01-11T22:18:12.620Z,3.00
2024-01-11T22:20:45.030Z,3.60
2024-01-11T22:23:17.074Z,3.40
2024-01-11T22:25:49.193Z,3.30
2024-01-11T22:28:21.664Z,3.70
2024-01-11T22:30:54.141Z,4.00
2024-01-11T22:33:26.085Z,3.50
2024-01-11T22:35:58.120Z,3.10
2024-01-11T22:38:30.848Z,3.60
2024-01-11T22:41:03.657Z,3.30
2024-01-11T22:43:37.793Z,3.70
2024-01-11T22:46:10.108Z,3.90
2024-01-11T22:48:43.029Z,3.40
2024-01-11T22:51:15.951Z,3.50
2024-01-11T22:53:48.325Z,3.20
2024-01-11T22:56:20.425Z,2.90
2024-01-11T22:58:53.054Z,2.70
2024-01-11T23:01:25.133Z,3.10
2024-01-11T23:03:58.045Z,2.80
2024-01-11T23:06:30.545Z,3.20
2024-01-11T23:09:02.929Z,3.70
2024-01-11T23:11:34.880Z,3.60
2024-01-11T23:14:07.034Z,3.30
2024-01-11T23:16:39.352Z,3.00
2024-01-11T23:19:11.437Z,3.00
2024-01-11T23:21:43.753Z,3.10
2024-01-11T23:24:16.083Z,2.80
2024-01-11T23:26:48.279Z,4.30
2024-01-11T23:29:20.598Z,3.70
2024-01-11T23:31:52.513Z,3.40
2024-01-11T23:34:24.696Z,3.20
2024-01-11T23:36:56.522Z,3.10
2024-01-11T23:39:28.880Z,3.40
2024-01-11T23:42:00.848Z,3.40
2024-01-11T23:44:32.807Z,3.70
2024-01-11T23:47:04.707Z,3.70
2024-01-11T23:49:36.786Z,3.90
2024-01-11T23:52:10.096Z,2.60
2024-01-11T23:54:42.083Z,3.20
2024-01-11T23:57:14.408Z,2.70
2024-01-11T23:59:46.962Z,2.90
